»·PEaware :: WAT169 KSNA-KLAS

WAT169 :: KSNA-KLAS

FLIGHT INFORMATION

Flight Status: Arrived
Operator:
Walker Air Transport
More flights by this operator :: More flights under this callsign
Pilot: Marty P. (27464)
Aircraft: BOEING 737-800
(B738)
More flights by this aircraft type
Origin: KSNA John Wayne-Orange Co
United States
Destination: KLAS McCarran Intl
United States
More flights between these airports :: More routes between these airports
Route: FINZZ3 MISEN KEPEC6
File this flight plan on PilotEdge
Remarks: Testing out new plugins, sorry for the boring flight
Altitude:
(Current/Filed)
27,000ft
Speed:
(Current/Filed)
480kts
Departed: 05-Jan-21 06:34 PM
Arrived: 05-Jan-21 07:19 PM
Distance/Time
Traveled:
197nm/0:45
Distance/Time
To Go:
Arrived

Flight Plot

Page will automatically refresh every two minutes.

Flight plan parsing failed; only flown route is shown


Map Options




Map Legend


Flown Route
Filed Route
Departure Airport
Arrival Airport
Navaid (VOR, NDB)
Fix

Horizontal Profiles

Position Reports

Time Latitude Longitude Heading Altitude Ground
Speed
05-Jan-21 18:01 33.675005 -117.865072 118 66ft 0kts
05-Jan-21 18:01 33.675005 -117.865072 118 66ft 0kts
05-Jan-21 18:02 33.675005 -117.865072 118 66ft 0kts
05-Jan-21 18:03 33.675005 -117.865072 118 66ft 0kts
05-Jan-21 18:04 33.675005 -117.865072 118 66ft 0kts
05-Jan-21 18:05 33.675005 -117.865072 118 66ft 0kts
05-Jan-21 18:06 33.675005 -117.865072 118 66ft 0kts
05-Jan-21 18:07 33.675005 -117.865072 118 66ft 0kts
05-Jan-21 18:08 33.675005 -117.865072 118 66ft 0kts
05-Jan-21 18:09 33.675005 -117.865072 118 66ft 0kts
05-Jan-21 18:10 33.675005 -117.865072 118 66ft 0kts
05-Jan-21 18:11 33.675005 -117.865072 118 66ft 0kts
05-Jan-21 18:12 33.675005 -117.865072 118 66ft 0kts
05-Jan-21 18:13 33.675005 -117.865072 118 66ft 0kts
05-Jan-21 18:14 33.675005 -117.865072 118 66ft 0kts
05-Jan-21 18:15 33.675005 -117.865072 118 66ft 0kts
05-Jan-21 18:16 33.675005 -117.865073 118 66ft 0kts
05-Jan-21 18:17 33.675166 -117.865552 85 66ft 2kts
05-Jan-21 18:18 33.674921 -117.865965 27 66ft 0kts
05-Jan-21 18:19 33.674922 -117.865964 27 66ft 0kts
05-Jan-21 18:20 33.675551 -117.865556 28 66ft 10kts
05-Jan-21 18:21 33.678814 -117.863481 28 66ft 10kts
05-Jan-21 18:22 33.680599 -117.862952 296 66ft 4kts
05-Jan-21 18:23 33.680670 -117.863115 298 66ft 0kts
05-Jan-21 18:24 33.680670 -117.863115 298 66ft 0kts
05-Jan-21 18:25 33.680670 -117.863115 298 66ft 0kts
05-Jan-21 18:26 33.680670 -117.863115 298 66ft 0kts
05-Jan-21 18:27 33.680670 -117.863115 298 66ft 0kts
05-Jan-21 18:28 33.680670 -117.863115 298 66ft 0kts
05-Jan-21 18:29 33.681525 -117.865080 276 66ft 2kts
05-Jan-21 18:30 33.681348 -117.865252 207 66ft 0kts
05-Jan-21 18:31 33.681348 -117.865252 207 66ft 0kts
05-Jan-21 18:32 33.681348 -117.865252 207 66ft 0kts
05-Jan-21 18:33 33.675987 -117.868648 207 66ft 118kts
05-Jan-21 18:34 33.633382 -117.891000 190 1959ft 204kts
05-Jan-21 18:35 33.569944 -117.905048 207 4835ft 247kts
05-Jan-21 18:36 33.517485 -117.960220 237 8972ft 260kts
05-Jan-21 18:37 33.516477 -118.044928 303 11667ft 311kts
05-Jan-21 18:38 33.593122 -118.105889 350 14467ft 360kts
05-Jan-21 18:39 33.691493 -118.070639 23 17568ft 383kts
05-Jan-21 18:40 33.788751 -118.013633 23 20265ft 396kts
05-Jan-21 18:41 33.888409 -117.953155 29 22622ft 409kts
05-Jan-21 18:42 33.983080 -117.873028 33 24723ft 421kts
05-Jan-21 18:43 34.074814 -117.783410 41 26891ft 425kts
05-Jan-21 18:44 34.158006 -117.672276 46 27206ft 471kts
05-Jan-21 18:45 34.243534 -117.547990 47 27259ft 484kts
05-Jan-21 18:46 34.328504 -117.421985 47 27265ft 482kts
05-Jan-21 18:47 34.412914 -117.295657 48 27265ft 482kts
05-Jan-21 18:48 34.497055 -117.169448 48 27265ft 482kts
05-Jan-21 18:49 34.581775 -117.043428 47 27276ft 481kts
05-Jan-21 18:50 34.667329 -116.918879 47 27293ft 479kts
05-Jan-21 18:51 34.752420 -116.794610 47 27298ft 479kts
05-Jan-21 18:52 34.838595 -116.670953 42 27263ft 478kts
05-Jan-21 18:53 34.937140 -116.565012 36 25983ft 467kts
05-Jan-21 18:54 35.037585 -116.467224 36 24487ft 461kts
05-Jan-21 18:55 35.132919 -116.364904 42 23633ft 471kts
05-Jan-21 18:56 35.221747 -116.254266 43 21627ft 450kts
05-Jan-21 18:57 35.308340 -116.145743 43 19619ft 440kts
05-Jan-21 18:58 35.392732 -116.039508 44 17475ft 430kts
05-Jan-21 18:59 35.474193 -115.936517 43 15270ft 413kts
05-Jan-21 19:00 35.552711 -115.836982 43 13098ft 400kts
05-Jan-21 19:01 35.624866 -115.745098 43 12992ft 335kts
05-Jan-21 19:02 35.684332 -115.669077 43 13003ft 299kts
05-Jan-21 19:03 35.744089 -115.597726 30 13000ft 297kts
05-Jan-21 19:04 35.821814 -115.571503 0 13001ft 292kts
05-Jan-21 19:05 35.902928 -115.567390 0 12994ft 292kts
05-Jan-21 19:06 35.977620 -115.532229 50 12227ft 302kts
05-Jan-21 19:07 36.009564 -115.443691 65 11143ft 272kts
05-Jan-21 19:08 36.029302 -115.354055 88 10584ft 280kts
05-Jan-21 19:09 36.022690 -115.258467 93 9386ft 275kts
05-Jan-21 19:10 36.016173 -115.167788 93 8738ft 257kts
05-Jan-21 19:11 36.010340 -115.081581 93 7349ft 238kts
05-Jan-21 19:12 36.005592 -115.001514 92 5840ft 233kts
05-Jan-21 19:13 36.010305 -114.928597 31 4984ft 192kts
05-Jan-21 19:14 36.061749 -114.925238 332 4962ft 189kts
05-Jan-21 19:15 36.073576 -114.988216 270 4287ft 197kts
05-Jan-21 19:16 36.073631 -115.048652 270 3317ft 162kts
05-Jan-21 19:17 36.073655 -115.104407 268 2438ft 159kts
05-Jan-21 19:18 36.074237 -115.144829 297 2101ft 19kts
05-Jan-21 19:19 36.076115 -115.146538 359 2105ft 17kts
05-Jan-21 19:20 36.079587 -115.147663 345 2102ft 6kts
05-Jan-21 19:22 36.079916 -115.147069 65 2099ft 0kts
05-Jan-21 19:23 36.079916 -115.147069 65 2099ft 0kts
05-Jan-21 19:24 36.079916 -115.147069 65 2099ft 0kts
05-Jan-21 19:25 36.079916 -115.147069 65 2099ft 0kts
05-Jan-21 19:26 36.079916 -115.147069 65 2099ft 0kts
05-Jan-21 19:27 36.079916 -115.147069 65 2099ft 0kts
05-Jan-21 19:28 36.079916 -115.147069 65 2099ft 0kts

Navigation Log

Ident Type
Flight plan parsing failed, navigation log unavailable